sensor_id;sensor_type;location;lat;lon;timestamp;temperature;humidity
11965;DHT22;6042;41.326;19.826;2023-04-06T00:00:05;7.70;99.90
11965;DHT22;6042;41.326;19.826;2023-04-06T00:02:36;7.70;99.90
11965;DHT22;6042;41.326;19.826;2023-04-06T00:05:05;7.80;99.90
11965;DHT22;6042;41.326;19.826;2023-04-06T00:07:36;7.80;99.90
11965;DHT22;6042;41.326;19.826;2023-04-06T00:10:05;7.90;99.90
11965;DHT22;6042;41.326;19.826;2023-04-06T00:12:34;8.00;99.90
11965;DHT22;6042;41.326;19.826;2023-04-06T00:15:03;8.10;99.90
11965;DHT22;6042;41.326;19.826;2023-04-06T00:17:32;8.30;99.90
11965;DHT22;6042;41.326;19.826;2023-04-06T00:20:01;8.30;99.90
11965;DHT22;6042;41.326;19.826;2023-04-06T00:22:30;8.20;99.90
11965;DHT22;6042;41.326;19.826;2023-04-06T00:24:59;8.20;99.90
11965;DHT22;6042;41.326;19.826;2023-04-06T00:27:28;8.20;99.90
11965;DHT22;6042;41.326;19.826;2023-04-06T00:29:56;8.30;99.90
11965;DHT22;6042;41.326;19.826;2023-04-06T00:32:25;8.40;99.90
11965;DHT22;6042;41.326;19.826;2023-04-06T00:34:55;8.50;99.90
11965;DHT22;6042;41.326;19.826;2023-04-06T00:37:23;8.50;99.90
11965;DHT22;6042;41.326;19.826;2023-04-06T00:39:51;8.50;99.90
11965;DHT22;6042;41.326;19.826;2023-04-06T00:42:22;8.50;99.90
11965;DHT22;6042;41.326;19.826;2023-04-06T00:44:53;8.50;99.90
11965;DHT22;6042;41.326;19.826;2023-04-06T00:47:23;8.50;99.90
11965;DHT22;6042;41.326;19.826;2023-04-06T00:49:52;8.40;99.90
11965;DHT22;6042;41.326;19.826;2023-04-06T00:52:21;8.30;99.90
11965;DHT22;6042;41.326;19.826;2023-04-06T00:54:50;8.30;99.90
11965;DHT22;6042;41.326;19.826;2023-04-06T00:57:21;8.30;99.90
11965;DHT22;6042;41.326;19.826;2023-04-06T00:59:54;8.20;99.90
11965;DHT22;6042;41.326;19.826;2023-04-06T01:02:23;8.20;99.90
11965;DHT22;6042;41.326;19.826;2023-04-06T01:04:54;8.20;99.90
11965;DHT22;6042;41.326;19.826;2023-04-06T01:07:43;8.30;99.90
11965;DHT22;6042;41.326;19.826;2023-04-06T01:10:23;8.40;99.90
11965;DHT22;6042;41.326;19.826;2023-04-06T01:13:00;8.50;99.90
11965;DHT22;6042;41.326;19.826;2023-04-06T01:15:58;8.40;99.90
11965;DHT22;6042;41.326;19.826;2023-04-06T01:18:47;8.40;99.90
11965;DHT22;6042;41.326;19.826;2023-04-06T01:21:19;8.40;99.90
11965;DHT22;6042;41.326;19.826;2023-04-06T01:24:09;8.50;99.90
11965;DHT22;6042;41.326;19.826;2023-04-06T01:27:02;8.50;99.90
11965;DHT22;6042;41.326;19.826;2023-04-06T01:29:53;8.50;99.90
11965;DHT22;6042;41.326;19.826;2023-04-06T01:32:51;8.60;99.90
11965;DHT22;6042;41.326;19.826;2023-04-06T01:35:35;8.60;99.90
11965;DHT22;6042;41.326;19.826;2023-04-06T01:38:13;8.60;99.90
11965;DHT22;6042;41.326;19.826;2023-04-06T01:40:45;8.60;99.90
11965;DHT22;6042;41.326;19.826;2023-04-06T01:43:16;8.70;99.90
11965;DHT22;6042;41.326;19.826;2023-04-06T01:45:59;8.70;99.90
11965;DHT22;6042;41.326;19.826;2023-04-06T01:48:33;8.60;99.90
11965;DHT22;6042;41.326;19.826;2023-04-06T01:51:11;8.70;99.90
11965;DHT22;6042;41.326;19.826;2023-04-06T01:53:47;8.60;99.90
11965;DHT22;6042;41.326;19.826;2023-04-06T01:56:20;8.60;99.90
11965;DHT22;6042;41.326;19.826;2023-04-06T01:59:00;8.50;99.90
11965;DHT22;6042;41.326;19.826;2023-04-06T02:01:35;8.50;99.90
11965;DHT22;6042;41.326;19.826;2023-04-06T02:04:04;8.30;99.90
11965;DHT22;6042;41.326;19.826;2023-04-06T02:06:33;8.30;99.90
11965;DHT22;6042;41.326;19.826;2023-04-06T02:09:04;8.40;99.90
11965;DHT22;6042;41.326;19.826;2023-04-06T02:11:34;8.50;99.90
11965;DHT22;6042;41.326;19.826;2023-04-06T02:14:03;8.50;99.90
11965;DHT22;6042;41.326;19.826;2023-04-06T02:16:37;8.50;99.90
11965;DHT22;6042;41.326;19.826;2023-04-06T02:19:05;8.50;99.90
11965;DHT22;6042;41.326;19.826;2023-04-06T02:21:34;8.50;99.90
11965;DHT22;6042;41.326;19.826;2023-04-06T02:24:03;8.50;99.90
11965;DHT22;6042;41.326;19.826;2023-04-06T02:26:31;8.50;99.90
11965;DHT22;6042;41.326;19.826;2023-04-06T02:29:01;8.50;99.90
11965;DHT22;6042;41.326;19.826;2023-04-06T02:31:32;8.50;99.90
11965;DHT22;6042;41.326;19.826;2023-04-06T02:34:02;8.40;99.90
11965;DHT22;6042;41.326;19.826;2023-04-06T02:36:32;8.30;99.90
11965;DHT22;6042;41.326;19.826;2023-04-06T02:39:00;8.30;99.90
11965;DHT22;6042;41.326;19.826;2023-04-06T02:41:29;8.40;99.90
11965;DHT22;6042;41.326;19.826;2023-04-06T02:44:01;8.40;99.90
11965;DHT22;6042;41.326;19.826;2023-04-06T02:46:38;8.40;99.90
11965;DHT22;6042;41.326;19.826;2023-04-06T02:49:06;8.40;99.90
11965;DHT22;6042;41.326;19.826;2023-04-06T02:51:36;8.40;99.90
11965;DHT22;6042;41.326;19.826;2023-04-06T02:54:18;8.40;99.90
11965;DHT22;6042;41.326;19.826;2023-04-06T02:56:47;8.40;99.90
11965;DHT22;6042;41.326;19.826;2023-04-06T02:59:18;8.40;99.90
11965;DHT22;6042;41.326;19.826;2023-04-06T03:01:58;8.40;99.90
11965;DHT22;6042;41.326;19.826;2023-04-06T03:04:27;8.40;99.90
11965;DHT22;6042;41.326;19.826;2023-04-06T03:06:58;8.30;99.90
11965;DHT22;6042;41.326;19.826;2023-04-06T03:09:37;8.40;99.90
11965;DHT22;6042;41.326;19.826;2023-04-06T03:12:06;8.40;99.90
11965;DHT22;6042;41.326;19.826;2023-04-06T03:14:55;8.30;99.90
11965;DHT22;6042;41.326;19.826;2023-04-06T03:17:25;8.20;99.90
11965;DHT22;6042;41.326;19.826;2023-04-06T03:19:57;8.30;99.90
11965;DHT22;6042;41.326;19.826;2023-04-06T03:22:26;8.30;99.90
11965;DHT22;6042;41.326;19.826;2023-04-06T03:24:54;8.30;99.90
11965;DHT22;6042;41.326;19.826;2023-04-06T03:27:23;8.30;99.90
11965;DHT22;6042;41.326;19.826;2023-04-06T03:29:52;8.20;99.90
11965;DHT22;6042;41.326;19.826;2023-04-06T03:32:31;8.10;99.90
11965;DHT22;6042;41.326;19.826;2023-04-06T03:34:59;8.20;99.90
11965;DHT22;6042;41.326;19.826;2023-04-06T03:37:28;8.20;99.90
11965;DHT22;6042;41.326;19.826;2023-04-06T03:40:02;8.20;99.90
11965;DHT22;6042;41.326;19.826;2023-04-06T03:42:31;8.20;99.90
11965;DHT22;6042;41.326;19.826;2023-04-06T03:45:10;8.10;99.90
11965;DHT22;6042;41.326;19.826;2023-04-06T03:47:46;8.00;99.90
11965;DHT22;6042;41.326;19.826;2023-04-06T03:50:15;8.00;99.90
11965;DHT22;6042;41.326;19.826;2023-04-06T03:52:44;8.10;99.90
11965;DHT22;6042;41.326;19.826;2023-04-06T03:55:13;8.00;99.90
11965;DHT22;6042;41.326;19.826;2023-04-06T03:57:41;8.00;99.90
11965;DHT22;6042;41.326;19.826;2023-04-06T04:00:11;8.00;99.90
11965;DHT22;6042;41.326;19.826;2023-04-06T04:02:40;8.00;99.90
11965;DHT22;6042;41.326;19.826;2023-04-06T04:05:10;8.00;99.90
11965;DHT22;6042;41.326;19.826;2023-04-06T04:07:39;8.00;99.90
11965;DHT22;6042;41.326;19.826;2023-04-06T04:10:10;8.00;99.90
11965;DHT22;6042;41.326;19.826;2023-04-06T04:12:38;8.00;99.90
11965;DHT22;6042;41.326;19.826;2023-04-06T04:15:08;8.00;99.90
11965;DHT22;6042;41.326;19.826;2023-04-06T04:17:36;8.00;99.90
11965;DHT22;6042;41.326;19.826;2023-04-06T04:20:06;8.00;99.90
11965;DHT22;6042;41.326;19.826;2023-04-06T04:22:36;8.00;99.90
11965;DHT22;6042;41.326;19.826;2023-04-06T04:25:06;8.00;99.90
11965;DHT22;6042;41.326;19.826;2023-04-06T04:27:39;8.00;99.90
11965;DHT22;6042;41.326;19.826;2023-04-06T04:30:08;8.00;99.90
11965;DHT22;6042;41.326;19.826;2023-04-06T04:32:37;8.00;99.90
11965;DHT22;6042;41.326;19.826;2023-04-06T04:35:09;7.90;99.90
11965;DHT22;6042;41.326;19.826;2023-04-06T04:37:42;7.90;99.90
11965;DHT22;6042;41.326;19.826;2023-04-06T04:40:11;7.90;99.90
11965;DHT22;6042;41.326;19.826;2023-04-06T04:42:49;8.00;99.90
11965;DHT22;6042;41.326;19.826;2023-04-06T04:45:26;8.00;99.90
11965;DHT22;6042;41.326;19.826;2023-04-06T04:47:55;7.90;99.90
11965;DHT22;6042;41.326;19.826;2023-04-06T04:50:28;7.80;99.90
11965;DHT22;6042;41.326;19.826;2023-04-06T04:52:59;7.60;99.90
11965;DHT22;6042;41.326;19.826;2023-04-06T04:55:28;7.60;99.90
11965;DHT22;6042;41.326;19.826;2023-04-06T04:57:59;7.60;99.90
11965;DHT22;6042;41.326;19.826;2023-04-06T05:00:46;7.80;99.90
11965;DHT22;6042;41.326;19.826;2023-04-06T05:03:19;7.90;99.90
11965;DHT22;6042;41.326;19.826;2023-04-06T05:05:57;8.00;99.90
11965;DHT22;6042;41.326;19.826;2023-04-06T05:08:31;8.00;99.90
11965;DHT22;6042;41.326;19.826;2023-04-06T05:11:01;7.80;99.90
11965;DHT22;6042;41.326;19.826;2023-04-06T05:13:34;7.70;99.90
11965;DHT22;6042;41.326;19.826;2023-04-06T05:16:09;7.70;99.90
11965;DHT22;6042;41.326;19.826;2023-04-06T05:18:37;7.70;99.90
11965;DHT22;6042;41.326;19.826;2023-04-06T05:21:07;7.70;99.90
11965;DHT22;6042;41.326;19.826;2023-04-06T05:23:49;7.80;99.90
11965;DHT22;6042;41.326;19.826;2023-04-06T05:26:18;8.00;99.90
11965;DHT22;6042;41.326;19.826;2023-04-06T05:28:48;8.10;99.90
11965;DHT22;6042;41.326;19.826;2023-04-06T05:31:17;8.20;99.90
11965;DHT22;6042;41.326;19.826;2023-04-06T05:33:49;8.20;99.90
11965;DHT22;6042;41.326;19.826;2023-04-06T05:36:28;8.40;99.90
11965;DHT22;6042;41.326;19.826;2023-04-06T05:39:02;8.50;99.90
11965;DHT22;6042;41.326;19.826;2023-04-06T05:41:42;8.60;99.90
11965;DHT22;6042;41.326;19.826;2023-04-06T05:44:30;8.70;99.90
11965;DHT22;6042;41.326;19.826;2023-04-06T05:47:11;8.70;99.90
11965;DHT22;6042;41.326;19.826;2023-04-06T05:49:42;8.50;99.90
11965;DHT22;6042;41.326;19.826;2023-04-06T05:52:19;8.40;99.90
11965;DHT22;6042;41.326;19.826;2023-04-06T05:54:50;8.50;99.90
11965;DHT22;6042;41.326;19.826;2023-04-06T05:57:19;8.40;99.90
11965;DHT22;6042;41.326;19.826;2023-04-06T05:59:48;8.40;99.90
11965;DHT22;6042;41.326;19.826;2023-04-06T06:02:19;8.20;99.90
11965;DHT22;6042;41.326;19.826;2023-04-06T06:04:51;8.10;99.90
11965;DHT22;6042;41.326;19.826;2023-04-06T06:07:20;8.00;99.90
11965;DHT22;6042;41.326;19.826;2023-04-06T06:10:01;8.00;99.90
11965;DHT22;6042;41.326;19.826;2023-04-06T06:12:32;7.90;99.90
11965;DHT22;6042;41.326;19.826;2023-04-06T06:15:01;7.90;99.90
11965;DHT22;6042;41.326;19.826;2023-04-06T06:17:35;8.00;99.90
11965;DHT22;6042;41.326;19.826;2023-04-06T06:20:07;8.10;99.90
11965;DHT22;6042;41.326;19.826;2023-04-06T06:22:36;7.90;99.90
11965;DHT22;6042;41.326;19.826;2023-04-06T06:25:08;8.00;99.90
11965;DHT22;6042;41.326;19.826;2023-04-06T06:27:37;8.10;99.90
11965;DHT22;6042;41.326;19.826;2023-04-06T06:30:06;8.10;99.90
11965;DHT22;6042;41.326;19.826;2023-04-06T06:32:39;8.10;99.90
11965;DHT22;6042;41.326;19.826;2023-04-06T06:35:08;8.20;99.90
11965;DHT22;6042;41.326;19.826;2023-04-06T06:37:37;8.10;99.90
11965;DHT22;6042;41.326;19.826;2023-04-06T06:40:12;8.10;99.90
11965;DHT22;6042;41.326;19.826;2023-04-06T06:42:46;8.00;99.90
11965;DHT22;6042;41.326;19.826;2023-04-06T06:45:25;8.00;99.90
11965;DHT22;6042;41.326;19.826;2023-04-06T06:47:53;8.10;99.90
11965;DHT22;6042;41.326;19.826;2023-04-06T06:50:22;8.20;99.90
11965;DHT22;6042;41.326;19.826;2023-04-06T06:52:50;8.30;99.90
11965;DHT22;6042;41.326;19.826;2023-04-06T06:55:20;8.50;99.90
11965;DHT22;6042;41.326;19.826;2023-04-06T06:57:50;8.50;99.90
11965;DHT22;6042;41.326;19.826;2023-04-06T07:00:19;8.60;99.90
11965;DHT22;6042;41.326;19.826;2023-04-06T07:02:49;8.60;99.90
11965;DHT22;6042;41.326;19.826;2023-04-06T07:05:18;8.50;99.90
11965;DHT22;6042;41.326;19.826;2023-04-06T07:07:57;8.50;99.90
11965;DHT22;6042;41.326;19.826;2023-04-06T07:10:27;8.50;99.90
11965;DHT22;6042;41.326;19.826;2023-04-06T07:12:56;8.60;99.90
11965;DHT22;6042;41.326;19.826;2023-04-06T07:15:25;8.60;99.90
11965;DHT22;6042;41.326;19.826;2023-04-06T07:17:53;8.60;99.90
11965;DHT22;6042;41.326;19.826;2023-04-06T07:20:23;8.60;99.90
11965;DHT22;6042;41.326;19.826;2023-04-06T07:22:52;8.50;99.90
11965;DHT22;6042;41.326;19.826;2023-04-06T07:25:21;8.50;99.90
11965;DHT22;6042;41.326;19.826;2023-04-06T07:27:53;8.60;99.90
11965;DHT22;6042;41.326;19.826;2023-04-06T07:30:23;8.60;99.90
11965;DHT22;6042;41.326;19.826;2023-04-06T07:32:53;8.50;99.90
11965;DHT22;6042;41.326;19.826;2023-04-06T07:35:23;8.50;99.90
11965;DHT22;6042;41.326;19.826;2023-04-06T07:37:53;8.60;99.90
11965;DHT22;6042;41.326;19.826;2023-04-06T07:40:23;8.60;99.90
11965;DHT22;6042;41.326;19.826;2023-04-06T07:42:55;8.60;99.90
11965;DHT22;6042;41.326;19.826;2023-04-06T07:45:24;8.70;99.90
11965;DHT22;6042;41.326;19.826;2023-04-06T07:47:54;8.70;99.90
11965;DHT22;6042;41.326;19.826;2023-04-06T07:50:24;8.80;99.90
11965;DHT22;6042;41.326;19.826;2023-04-06T07:52:54;9.00;99.90
11965;DHT22;6042;41.326;19.826;2023-04-06T07:55:22;9.10;99.90
11965;DHT22;6042;41.326;19.826;2023-04-06T07:57:51;9.30;99.90
11965;DHT22;6042;41.326;19.826;2023-04-06T08:00:21;9.50;99.90
11965;DHT22;6042;41.326;19.826;2023-04-06T08:02:50;9.70;99.90
11965;DHT22;6042;41.326;19.826;2023-04-06T08:05:18;10.00;99.90
11965;DHT22;6042;41.326;19.826;2023-04-06T08:07:47;10.00;99.90
11965;DHT22;6042;41.326;19.826;2023-04-06T08:10:16;10.00;99.90
11965;DHT22;6042;41.326;19.826;2023-04-06T08:12:44;10.10;99.90
11965;DHT22;6042;41.326;19.826;2023-04-06T08:15:13;10.10;99.90
11965;DHT22;6042;41.326;19.826;2023-04-06T08:17:42;10.10;99.90
11965;DHT22;6042;41.326;19.826;2023-04-06T08:20:11;10.20;99.90
11965;DHT22;6042;41.326;19.826;2023-04-06T08:22:39;10.30;99.90
11965;DHT22;6042;41.326;19.826;2023-04-06T08:25:08;10.50;99.90
11965;DHT22;6042;41.326;19.826;2023-04-06T08:27:36;10.50;99.90
11965;DHT22;6042;41.326;19.826;2023-04-06T08:30:06;10.60;99.90
11965;DHT22;6042;41.326;19.826;2023-04-06T08:32:34;10.60;99.90
11965;DHT22;6042;41.326;19.826;2023-04-06T08:35:04;10.70;99.90
11965;DHT22;6042;41.326;19.826;2023-04-06T08:37:33;10.70;99.90
11965;DHT22;6042;41.326;19.826;2023-04-06T08:40:02;10.60;99.90
11965;DHT22;6042;41.326;19.826;2023-04-06T08:42:33;10.80;99.90
11965;DHT22;6042;41.326;19.826;2023-04-06T08:45:02;11.10;99.90
11965;DHT22;6042;41.326;19.826;2023-04-06T08:47:31;11.40;99.90
11965;DHT22;6042;41.326;19.826;2023-04-06T08:50:03;11.70;99.60
11965;DHT22;6042;41.326;19.826;2023-04-06T08:52:33;12.10;98.80
11965;DHT22;6042;41.326;19.826;2023-04-06T08:55:01;12.30;98.30
11965;DHT22;6042;41.326;19.826;2023-04-06T08:57:31;12.40;98.10
11965;DHT22;6042;41.326;19.826;2023-04-06T09:00:00;12.50;96.00
11965;DHT22;6042;41.326;19.826;2023-04-06T09:02:29;12.60;95.30
11965;DHT22;6042;41.326;19.826;2023-04-06T09:04:58;12.90;94.50
11965;DHT22;6042;41.326;19.826;2023-04-06T09:07:29;12.80;94.40
11965;DHT22;6042;41.326;19.826;2023-04-06T09:09:58;13.00;94.70
11965;DHT22;6042;41.326;19.826;2023-04-06T09:12:28;13.10;94.50
11965;DHT22;6042;41.326;19.826;2023-04-06T09:14:57;13.10;94.30
11965;DHT22;6042;41.326;19.826;2023-04-06T09:17:27;13.00;94.50
11965;DHT22;6042;41.326;19.826;2023-04-06T09:19:57;13.00;94.50
11965;DHT22;6042;41.326;19.826;2023-04-06T09:22:25;12.80;95.20
11965;DHT22;6042;41.326;19.826;2023-04-06T09:24:57;12.40;95.30
11965;DHT22;6042;41.326;19.826;2023-04-06T09:27:32;12.10;95.60
11965;DHT22;6042;41.326;19.826;2023-04-06T09:30:06;12.00;94.00
11965;DHT22;6042;41.326;19.826;2023-04-06T09:32:46;12.20;94.00
11965;DHT22;6042;41.326;19.826;2023-04-06T09:35:16;12.30;94.10
11965;DHT22;6042;41.326;19.826;2023-04-06T09:37:44;12.20;94.40
11965;DHT22;6042;41.326;19.826;2023-04-06T09:40:15;12.30;94.30
11965;DHT22;6042;41.326;19.826;2023-04-06T09:42:46;12.40;93.40
11965;DHT22;6042;41.326;19.826;2023-04-06T09:45:15;12.40;93.70
11965;DHT22;6042;41.326;19.826;2023-04-06T09:47:45;12.30;93.00
11965;DHT22;6042;41.326;19.826;2023-04-06T09:50:15;12.40;93.00
11965;DHT22;6042;41.326;19.826;2023-04-06T09:52:47;12.60;92.20
11965;DHT22;6042;41.326;19.826;2023-04-06T09:55:23;12.50;91.70
11965;DHT22;6042;41.326;19.826;2023-04-06T09:57:57;12.60;92.00
11965;DHT22;6042;41.326;19.826;2023-04-06T10:00:32;12.60;91.70
11965;DHT22;6042;41.326;19.826;2023-04-06T10:03:14;12.50;90.70
11965;DHT22;6042;41.326;19.826;2023-04-06T10:05:54;12.60;91.00
11965;DHT22;6042;41.326;19.826;2023-04-06T10:08:27;12.70;91.10
11965;DHT22;6042;41.326;19.826;2023-04-06T10:11:00;12.90;91.00
11965;DHT22;6042;41.326;19.826;2023-04-06T10:13:30;12.80;90.90
11965;DHT22;6042;41.326;19.826;2023-04-06T10:16:00;12.70;90.70
11965;DHT22;6042;41.326;19.826;2023-04-06T10:18:29;12.70;90.40
11965;DHT22;6042;41.326;19.826;2023-04-06T10:21:11;12.70;90.80
11965;DHT22;6042;41.326;19.826;2023-04-06T10:23:43;12.70;90.60
11965;DHT22;6042;41.326;19.826;2023-04-06T10:26:16;12.90;90.20
11965;DHT22;6042;41.326;19.826;2023-04-06T10:28:46;12.90;89.30
11965;DHT22;6042;41.326;19.826;2023-04-06T10:31:23;13.00;88.90
11965;DHT22;6042;41.326;19.826;2023-04-06T10:33:55;13.20;88.80
11965;DHT22;6042;41.326;19.826;2023-04-06T10:36:25;13.30;89.00
11965;DHT22;6042;41.326;19.826;2023-04-06T10:38:55;13.50;87.60
11965;DHT22;6042;41.326;19.826;2023-04-06T10:41:32;13.60;85.80
11965;DHT22;6042;41.326;19.826;2023-04-06T10:44:01;13.80;86.80
11965;DHT22;6042;41.326;19.826;2023-04-06T10:46:32;14.10;83.10
11965;DHT22;6042;41.326;19.826;2023-04-06T10:49:10;13.90;83.30
11965;DHT22;6042;41.326;19.826;2023-04-06T10:51:39;13.60;83.30
11965;DHT22;6042;41.326;19.826;2023-04-06T10:54:09;13.60;83.90
11965;DHT22;6042;41.326;19.826;2023-04-06T10:56:41;13.60;83.90
11965;DHT22;6042;41.326;19.826;2023-04-06T10:59:10;13.80;81.80
11965;DHT22;6042;41.326;19.826;2023-04-06T11:01:44;13.60;83.00
11965;DHT22;6042;41.326;19.826;2023-04-06T11:04:16;13.70;83.30
11965;DHT22;6042;41.326;19.826;2023-04-06T11:06:47;14.00;81.40
11965;DHT22;6042;41.326;19.826;2023-04-06T11:09:26;14.10;80.90
11965;DHT22;6042;41.326;19.826;2023-04-06T11:11:56;14.20;80.60
11965;DHT22;6042;41.326;19.826;2023-04-06T11:14:25;14.20;81.40
11965;DHT22;6042;41.326;19.826;2023-04-06T11:16:54;14.10;81.00
11965;DHT22;6042;41.326;19.826;2023-04-06T11:19:22;13.90;80.90
11965;DHT22;6042;41.326;19.826;2023-04-06T11:21:52;14.00;81.40
11965;DHT22;6042;41.326;19.826;2023-04-06T11:24:22;14.20;80.10
11965;DHT22;6042;41.326;19.826;2023-04-06T11:26:52;14.30;78.30
11965;DHT22;6042;41.326;19.826;2023-04-06T11:29:24;14.20;78.90
11965;DHT22;6042;41.326;19.826;2023-04-06T11:31:59;14.40;78.60
11965;DHT22;6042;41.326;19.826;2023-04-06T11:34:29;14.70;76.80
11965;DHT22;6042;41.326;19.826;2023-04-06T11:36:59;14.80;75.50
11965;DHT22;6042;41.326;19.826;2023-04-06T11:39:29;14.70;76.60
11965;DHT22;6042;41.326;19.826;2023-04-06T11:41:59;14.60;77.20
11965;DHT22;6042;41.326;19.826;2023-04-06T11:44:34;14.60;77.80
11965;DHT22;6042;41.326;19.826;2023-04-06T11:47:04;14.50;78.50
11965;DHT22;6042;41.326;19.826;2023-04-06T11:49:38;14.40;79.50
11965;DHT22;6042;41.326;19.826;2023-04-06T11:52:15;14.50;79.00
11965;DHT22;6042;41.326;19.826;2023-04-06T11:54:44;14.60;77.40
11965;DHT22;6042;41.326;19.826;2023-04-06T11:57:13;14.60;78.40
11965;DHT22;6042;41.326;19.826;2023-04-06T11:59:43;14.70;77.90
11965;DHT22;6042;41.326;19.826;2023-04-06T12:02:12;14.60;77.80
11965;DHT22;6042;41.326;19.826;2023-04-06T12:04:41;14.80;76.80
11965;DHT22;6042;41.326;19.826;2023-04-06T12:07:10;14.90;77.00
11965;DHT22;6042;41.326;19.826;2023-04-06T12:09:38;14.90;77.30
11965;DHT22;6042;41.326;19.826;2023-04-06T12:12:07;14.80;78.20
11965;DHT22;6042;41.326;19.826;2023-04-06T12:14:35;14.80;77.50
11965;DHT22;6042;41.326;19.826;2023-04-06T12:17:05;14.70;77.70
11965;DHT22;6042;41.326;19.826;2023-04-06T12:19:34;14.40;78.90
11965;DHT22;6042;41.326;19.826;2023-04-06T12:22:02;14.50;80.00
11965;DHT22;6042;41.326;19.826;2023-04-06T12:24:31;14.70;79.80
11965;DHT22;6042;41.326;19.826;2023-04-06T12:26:59;14.60;79.70
11965;DHT22;6042;41.326;19.826;2023-04-06T12:29:36;14.60;80.00
11965;DHT22;6042;41.326;19.826;2023-04-06T12:32:06;14.70;80.10
11965;DHT22;6042;41.326;19.826;2023-04-06T12:34:35;14.80;78.60
11965;DHT22;6042;41.326;19.826;2023-04-06T12:37:03;14.80;78.90
11965;DHT22;6042;41.326;19.826;2023-04-06T12:39:32;14.80;79.30
11965;DHT22;6042;41.326;19.826;2023-04-06T12:42:01;14.70;79.00
11965;DHT22;6042;41.326;19.826;2023-04-06T12:44:29;14.10;80.10
11965;DHT22;6042;41.326;19.826;2023-04-06T12:46:58;14.30;80.40
11965;DHT22;6042;41.326;19.826;2023-04-06T12:49:28;14.70;80.20
11965;DHT22;6042;41.326;19.826;2023-04-06T12:51:58;15.00;78.10
11965;DHT22;6042;41.326;19.826;2023-04-06T12:54:27;14.60;78.80
11965;DHT22;6042;41.326;19.826;2023-04-06T12:56:56;15.00;78.00
11965;DHT22;6042;41.326;19.826;2023-04-06T12:59:24;14.60;77.40
11965;DHT22;6042;41.326;19.826;2023-04-06T13:01:53;14.30;78.30
11965;DHT22;6042;41.326;19.826;2023-04-06T13:04:21;14.00;78.80
11965;DHT22;6042;41.326;19.826;2023-04-06T13:06:52;14.00;79.60
11965;DHT22;6042;41.326;19.826;2023-04-06T13:09:21;14.10;79.40
11965;DHT22;6042;41.326;19.826;2023-04-06T13:11:49;14.10;78.90
11965;DHT22;6042;41.326;19.826;2023-04-06T13:14:18;14.00;79.20
11965;DHT22;6042;41.326;19.826;2023-04-06T13:16:46;14.00;78.90
11965;DHT22;6042;41.326;19.826;2023-04-06T13:19:15;14.00;78.70
11965;DHT22;6042;41.326;19.826;2023-04-06T13:21:45;13.90;79.60
11965;DHT22;6042;41.326;19.826;2023-04-06T13:24:15;13.90;79.70
11965;DHT22;6042;41.326;19.826;2023-04-06T13:26:44;14.00;79.50
11965;DHT22;6042;41.326;19.826;2023-04-06T13:29:12;14.10;79.30
11965;DHT22;6042;41.326;19.826;2023-04-06T13:31:41;14.30;78.10
11965;DHT22;6042;41.326;19.826;2023-04-06T13:34:09;14.30;78.90
11965;DHT22;6042;41.326;19.826;2023-04-06T13:36:38;14.30;78.10
11965;DHT22;6042;41.326;19.826;2023-04-06T13:39:09;14.30;78.00
11965;DHT22;6042;41.326;19.826;2023-04-06T13:41:39;15.00;76.90
11965;DHT22;6042;41.326;19.826;2023-04-06T13:44:08;15.40;75.80
11965;DHT22;6042;41.326;19.826;2023-04-06T13:46:36;16.10;74.50
11965;DHT22;6042;41.326;19.826;2023-04-06T13:49:05;16.50;73.10
11965;DHT22;6042;41.326;19.826;2023-04-06T13:51:33;17.00;72.70
11965;DHT22;6042;41.326;19.826;2023-04-06T13:54:02;18.30;69.30
11965;DHT22;6042;41.326;19.826;2023-04-06T13:56:30;19.50;65.70
11965;DHT22;6042;41.326;19.826;2023-04-06T13:59:00;20.00;62.90
11965;DHT22;6042;41.326;19.826;2023-04-06T14:01:29;20.20;62.10
11965;DHT22;6042;41.326;19.826;2023-04-06T14:03:57;21.20;60.80
11965;DHT22;6042;41.326;19.826;2023-04-06T14:06:26;22.10;58.50
11965;DHT22;6042;41.326;19.826;2023-04-06T14:08:58;22.70;56.00
11965;DHT22;6042;41.326;19.826;2023-04-06T14:11:26;22.20;56.00
11965;DHT22;6042;41.326;19.826;2023-04-06T14:13:55;21.70;56.60
11965;DHT22;6042;41.326;19.826;2023-04-06T14:16:26;20.40;57.40
11965;DHT22;6042;41.326;19.826;2023-04-06T14:18:54;19.10;60.90
11965;DHT22;6042;41.326;19.826;2023-04-06T14:21:25;18.90;60.70
11965;DHT22;6042;41.326;19.826;2023-04-06T14:23:53;17.90;63.40
11965;DHT22;6042;41.326;19.826;2023-04-06T14:26:25;16.90;65.90
11965;DHT22;6042;41.326;19.826;2023-04-06T14:28:54;16.30;68.20
11965;DHT22;6042;41.326;19.826;2023-04-06T14:31:23;15.80;69.60
11965;DHT22;6042;41.326;19.826;2023-04-06T14:33:53;15.40;70.70
11965;DHT22;6042;41.326;19.826;2023-04-06T14:36:21;14.70;72.50
11965;DHT22;6042;41.326;19.826;2023-04-06T14:41:20;14.50;73.70
11965;DHT22;6042;41.326;19.826;2023-04-06T14:43:49;14.30;75.00
11965;DHT22;6042;41.326;19.826;2023-04-06T14:46:19;14.50;75.90
11965;DHT22;6042;41.326;19.826;2023-04-06T14:48:48;14.80;76.00
11965;DHT22;6042;41.326;19.826;2023-04-06T14:51:19;15.00;75.10
11965;DHT22;6042;41.326;19.826;2023-04-06T14:53:47;15.00;75.10
11965;DHT22;6042;41.326;19.826;2023-04-06T14:56:19;15.00;75.60
11965;DHT22;6042;41.326;19.826;2023-04-06T14:58:48;15.10;75.10
11965;DHT22;6042;41.326;19.826;2023-04-06T15:01:18;14.80;75.90
11965;DHT22;6042;41.326;19.826;2023-04-06T15:03:47;14.70;77.00
11965;DHT22;6042;41.326;19.826;2023-04-06T15:06:19;14.60;77.60
11965;DHT22;6042;41.326;19.826;2023-04-06T15:08:48;14.70;76.90
11965;DHT22;6042;41.326;19.826;2023-04-06T15:11:17;14.50;77.60
11965;DHT22;6042;41.326;19.826;2023-04-06T15:13:45;14.40;77.20
11965;DHT22;6042;41.326;19.826;2023-04-06T15:16:14;14.10;78.50
11965;DHT22;6042;41.326;19.826;2023-04-06T15:18:43;13.90;80.00
11965;DHT22;6042;41.326;19.826;2023-04-06T15:21:12;13.80;81.50
11965;DHT22;6042;41.326;19.826;2023-04-06T15:23:41;13.80;82.10
11965;DHT22;6042;41.326;19.826;2023-04-06T15:26:10;13.80;82.10
11965;DHT22;6042;41.326;19.826;2023-04-06T15:28:38;13.70;82.30
11965;DHT22;6042;41.326;19.826;2023-04-06T15:31:13;13.80;82.40
11965;DHT22;6042;41.326;19.826;2023-04-06T15:33:59;13.40;83.10
11965;DHT22;6042;41.326;19.826;2023-04-06T15:36:28;13.30;83.50
11965;DHT22;6042;41.326;19.826;2023-04-06T15:38:59;13.20;84.10
11965;DHT22;6042;41.326;19.826;2023-04-06T15:41:27;13.00;85.20
11965;DHT22;6042;41.326;19.826;2023-04-06T15:43:56;13.00;85.90
11965;DHT22;6042;41.326;19.826;2023-04-06T15:46:25;13.00;86.10
11965;DHT22;6042;41.326;19.826;2023-04-06T15:48:55;13.10;86.50
11965;DHT22;6042;41.326;19.826;2023-04-06T15:51:23;13.10;87.00
11965;DHT22;6042;41.326;19.826;2023-04-06T15:53:52;13.20;87.10
11965;DHT22;6042;41.326;19.826;2023-04-06T15:56:22;13.00;87.80
11965;DHT22;6042;41.326;19.826;2023-04-06T15:58:50;12.90;88.30
11965;DHT22;6042;41.326;19.826;2023-04-06T16:01:18;12.80;87.40
11965;DHT22;6042;41.326;19.826;2023-04-06T16:03:47;12.70;88.10